Marianne — VRFM5 — position and weather

sailwx.info

Track history (hours):
 
Tides and Currents Weather Stations Pressure Air Temp Water Temp Dewpoint Dewpoint Depression Visibility Wind Speed Wind Dir Waves Ship Positions

Marianne

Last reported at 2016-Dec-03 00:31 UTC. Time now 2016-Dec-03 13:38 UTC.
Position N 55°06' E 018°03'.

Length 97 m; draft 5.5 m.

Type: Ship (hazmat cat B). MMSI: 477560836.

Date/timePositionNaut miles runAvg speedWind from/ knotsBaromVisibWave heightAir tempDewpointWater temp
2016-Dec-03 00:31N 55°06' E 018°03'8 8.6
2016-Dec-02 23:33N 55°02' E 018°16'9 9.0
2016-Dec-02 22:33N 54°58' E 018°29'9 8.6
2016-Dec-02 21:33N 54°53' E 018°42'9 8.6
2016-Dec-02 20:33N 54°48' E 018°54'7 6.8
2016-Dec-02 19:33N 54°41' E 018°58'9 8.9
2016-Dec-02 18:33N 54°33' E 018°51'1010.4
2016-Dec-02 17:33N 54°31' E 018°34'1 0.7
2016-Dec-02 16:32N 54°32' E 018°33'0 0.0
2016-Dec-02 15:32N 54°32' E 018°33'0 0.0
2016-Dec-02 14:32N 54°32' E 018°33'0 0.0
2016-Dec-02 13:32N 54°32' E 018°33'0 0.0
2016-Dec-02 12:32N 54°32' E 018°33'0 0.0
2016-Dec-02 11:32N 54°32' E 018°33'0 0.0
2016-Dec-02 10:32N 54°32' E 018°33'0 0.0
2016-Dec-02 09:32N 54°32' E 018°33'0 0.0
2016-Dec-02 08:32N 54°32' E 018°33'0 0.0
2016-Dec-02 07:32N 54°32' E 018°33'0 0.0
2016-Dec-02 06:32N 54°32' E 018°33'0 0.0
2016-Dec-02 05:32N 54°32' E 018°33'0 0.0
2016-Dec-02 04:32N 54°32' E 018°33'0 0.0
2016-Dec-02 03:32N 54°32' E 018°33'0 0.0
2016-Dec-02 02:32N 54°32' E 018°33'0 0.0
2016-Dec-02 01:32N 54°32' E 018°33'0 0.0
2016-Dec-02 00:32N 54°32' E 018°33'0 0.0
2016-Dec-01 23:32N 54°32' E 018°33'0 0.0
2016-Dec-01 22:32N 54°32' E 018°33'0 0.0
2016-Dec-01 21:32N 54°32' E 018°33'0 0.0
2016-Dec-01 20:29N 54°32' E 018°33'0 0.0
2016-Dec-01 19:32N 54°32' E 018°33'0 0.0
2016-Dec-01 18:32N 54°32' E 018°33'0 0.0
2016-Dec-01 17:32N 54°32' E 018°33'0 0.0
2016-Dec-01 16:32N 54°32' E 018°33'0 0.0
2016-Dec-01 15:32N 54°32' E 018°33'0 0.0
2016-Dec-01 14:32N 54°32' E 018°33'0 0.0
2016-Dec-01 13:32N 54°32' E 018°33'0 0.0
2016-Dec-01 12:32N 54°32' E 018°33'0 0.0
2016-Dec-01 11:32N 54°32' E 018°33'0 0.0
2016-Dec-01 10:32N 54°32' E 018°33'0 0.0
2016-Dec-01 09:32N 54°32' E 018°33'0 0.0
2016-Dec-01 08:32N 54°32' E 018°33'0 0.0
2016-Dec-01 07:32N 54°32' E 018°33'0 0.0
2016-Dec-01 06:32N 54°32' E 018°33'0 0.0
2016-Dec-01 05:32N 54°32' E 018°33'0 0.0
2016-Dec-01 04:32N 54°32' E 018°33'0 0.0
2016-Dec-01 03:32N 54°32' E 018°33'0 0.0
2016-Dec-01 02:32N 54°32' E 018°33'0 0.0
2016-Dec-01 01:32N 54°32' E 018°33'0 0.0
2016-Dec-01 00:32N 54°32' E 018°33'0 0.0
2016-Nov-30 23:32N 54°32' E 018°33'0 0.0
2016-Nov-30 22:32N 54°32' E 018°33'0 0.0
2016-Nov-30 21:32N 54°32' E 018°33'0 0.0
2016-Nov-30 20:32N 54°32' E 018°33'0 0.0
2016-Nov-30 19:32N 54°32' E 018°33'0 0.0
2016-Nov-30 18:32N 54°32' E 018°33'0 0.0
2016-Nov-30 17:32N 54°32' E 018°33'0 0.0
2016-Nov-30 16:32N 54°32' E 018°33'0 0.0
2016-Nov-30 15:32N 54°32' E 018°33'0 0.0
2016-Nov-30 14:32N 54°32' E 018°33'0 0.0
2016-Nov-30 13:32N 54°32' E 018°33'0 0.0
2016-Nov-30 12:32N 54°32' E 018°33'0 0.0
2016-Nov-30 11:32N 54°32' E 018°33'0 0.0
2016-Nov-30 10:26N 54°32' E 018°33'0 0.0
2016-Nov-30 09:32N 54°32' E 018°33'1 1.4
2016-Nov-30 08:34N 54°32' E 018°36'3 2.9
2016-Nov-30 07:31N 54°31' E 018°41'0 0.0
2016-Nov-30 06:31N 54°31' E 018°41'0 0.0
2016-Nov-30 05:31N 54°31' E 018°41'0 0.0
2016-Nov-30 04:31N 54°31' E 018°41'0 0.0
2016-Nov-30 03:31N 54°31' E 018°41'0 0.0
2016-Nov-30 02:31N 54°31' E 018°41'0 0.0
2016-Nov-30 01:31N 54°31' E 018°41'0 0.0
2016-Nov-30 00:31N 54°31' E 018°41'0 0.0
2016-Nov-29 23:31N 54°31' E 018°41'0 0.0
2016-Nov-29 22:31N 54°31' E 018°41'0 0.0
2016-Nov-29 21:31N 54°31' E 018°41'0 0.0
2016-Nov-29 20:31N 54°31' E 018°41'0 0.0
2016-Nov-29 19:31N 54°31' E 018°41'0 0.0
2016-Nov-29 18:31N 54°31' E 018°41'0 0.0
2016-Nov-29 17:31N 54°31' E 018°41'0 0.0
2016-Nov-29 16:31N 54°31' E 018°41'0 0.0
2016-Nov-29 15:31N 54°31' E 018°41'0 0.1
2016-Nov-29 14:31N 54°31' E 018°41'0 0.0
2016-Nov-29 13:31N 54°31' E 018°41'0 0.0
2016-Nov-29 12:31N 54°31' E 018°41'0 0.0
2016-Nov-29 11:31N 54°31' E 018°41'0 0.0
2016-Nov-29 10:31N 54°31' E 018°41'0 0.0
2016-Nov-29 09:31N 54°31' E 018°41'0 0.0
2016-Nov-29 08:31N 54°31' E 018°41'0 0.0
2016-Nov-29 07:31N 54°31' E 018°41'0 0.0
2016-Nov-29 06:31N 54°31' E 018°41'0 0.0
2016-Nov-29 05:31N 54°31' E 018°41'0 0.0
2016-Nov-29 04:31N 54°31' E 018°41'0 0.0
2016-Nov-29 03:31N 54°31' E 018°41'0 0.0
2016-Nov-29 02:33N 54°31' E 018°41'7 6.8
2016-Nov-29 01:33N 54°34' E 018°51'1212.0
2016-Nov-29 00:33N 54°45' E 018°59'1313.3
2016-Nov-28 23:33N 54°53' E 018°41'1313.5
2016-Nov-28 22:33N 55°00' E 018°21'1313.2
2016-Nov-28 21:33N 55°07' E 018°00'  
2016-Nov-26 03:31N 55°50' E 015°42'8610.2
2016-Nov-25 19:04N 55°09' E 017°55'611.4
2016-Nov-25 18:33N 55°06' E 018°04'1212.0
2016-Nov-25 17:33N 55°01' E 018°22'1211.9
2016-Nov-25 16:33N 54°54' E 018°40'1312.5
2016-Nov-25 15:33N 54°46' E 018°57'1211.7
2016-Nov-25 14:33N 54°35' E 018°53'1212.0
2016-Nov-25 13:33N 54°31' E 018°34'1 0.7
2016-Nov-25 12:31N 54°32' E 018°33'0 0.0
2016-Nov-25 11:31N 54°32' E 018°33'0 0.0
2016-Nov-25 10:31N 54°32' E 018°33'0 0.0
2016-Nov-25 09:31N 54°32' E 018°33'0 0.0
2016-Nov-25 08:31N 54°32' E 018°33'0 0.0
2016-Nov-25 07:31N 54°32' E 018°33'0 0.0
2016-Nov-25 06:31N 54°32' E 018°33'0 0.0
2016-Nov-25 05:31N 54°32' E 018°33'0 0.0
2016-Nov-25 04:31N 54°32' E 018°33'0 0.0
2016-Nov-25 03:31N 54°32' E 018°33'0 0.0
2016-Nov-25 02:31N 54°32' E 018°33'0 0.0
2016-Nov-25 01:31N 54°32' E 018°33'0 0.0
2016-Nov-25 00:31N 54°32' E 018°33'0 0.0
2016-Nov-24 23:31N 54°32' E 018°33'0 0.0
2016-Nov-24 22:31N 54°32' E 018°33'0 0.0
2016-Nov-24 21:31N 54°32' E 018°33'0 0.0
2016-Nov-24 20:31N 54°32' E 018°33'0 0.0
2016-Nov-24 19:31N 54°32' E 018°33'0 0.0
2016-Nov-24 18:31N 54°32' E 018°33'0 0.3
2016-Nov-24 17:33N 54°31' E 018°34'4 4.0
2016-Nov-24 16:31N 54°31' E 018°41'0 0.0
2016-Nov-24 15:31N 54°31' E 018°41'0 0.0
2016-Nov-24 14:31N 54°31' E 018°41'0 0.0
2016-Nov-24 13:31N 54°31' E 018°41'0 0.0
2016-Nov-24 12:31N 54°31' E 018°41'0 0.0
2016-Nov-24 11:31N 54°31' E 018°41'0 0.0
2016-Nov-24 10:31N 54°31' E 018°41'0 0.0
2016-Nov-24 09:31N 54°31' E 018°41'0 0.0
2016-Nov-24 08:33N 54°31' E 018°41'10 9.9
2016-Nov-24 07:34N 54°37' E 018°54'1110.8
2016-Nov-24 06:34N 54°48' E 018°53'1413.6
2016-Nov-24 05:34N 54°56' E 018°34'1313.4
2016-Nov-24 04:33N 55°03' E 018°14'7413.5
2016-Nov-23 23:06N 55°38' E 016°21'1113.4
2016-Nov-23 22:17N 55°43' E 016°04'2713.3
2016-Nov-23 20:15N 55°57' E 015°22'1413.3
2016-Nov-23 19:13N 56°03' E 015°00'811.2
2016-Nov-23 18:32N 56°08' E 014°49'  
Track history (hours):
 
Tides and Currents Weather Stations Pressure Air Temp Water Temp Dewpoint Dewpoint Depression Visibility Wind Speed Wind Dir Waves Ship Positions

Marianne

Last reported at 2016-Dec-03 00:31 UTC. Time now 2016-Dec-03 13:38 UTC.
Position N 55°06' E 018°03'.

Length 97 m; draft 5.5 m.

Type: Ship (hazmat cat B). MMSI: 477560836.

Date/timePositionNaut miles runAvg speedWind from/ knotsBaromVisibWave heightAir tempDewpointWater temp
2016-Dec-03 00:31N 55°06' E 018°03'8 8.6
2016-Dec-02 23:33N 55°02' E 018°16'9 9.0
2016-Dec-02 22:33N 54°58' E 018°29'9 8.6
2016-Dec-02 21:33N 54°53' E 018°42'9 8.6
2016-Dec-02 20:33N 54°48' E 018°54'7 6.8
2016-Dec-02 19:33N 54°41' E 018°58'9 8.9
2016-Dec-02 18:33N 54°33' E 018°51'1010.4
2016-Dec-02 17:33N 54°31' E 018°34'1 0.7
2016-Dec-02 16:32N 54°32' E 018°33'0 0.0
2016-Dec-02 15:32N 54°32' E 018°33'0 0.0
2016-Dec-02 14:32N 54°32' E 018°33'0 0.0
2016-Dec-02 13:32N 54°32' E 018°33'0 0.0
2016-Dec-02 12:32N 54°32' E 018°33'0 0.0
2016-Dec-02 11:32N 54°32' E 018°33'0 0.0
2016-Dec-02 10:32N 54°32' E 018°33'0 0.0
2016-Dec-02 09:32N 54°32' E 018°33'0 0.0
2016-Dec-02 08:32N 54°32' E 018°33'0 0.0
2016-Dec-02 07:32N 54°32' E 018°33'0 0.0
2016-Dec-02 06:32N 54°32' E 018°33'0 0.0
2016-Dec-02 05:32N 54°32' E 018°33'0 0.0
2016-Dec-02 04:32N 54°32' E 018°33'0 0.0
2016-Dec-02 03:32N 54°32' E 018°33'0 0.0
2016-Dec-02 02:32N 54°32' E 018°33'0 0.0
2016-Dec-02 01:32N 54°32' E 018°33'0 0.0
2016-Dec-02 00:32N 54°32' E 018°33'0 0.0
2016-Dec-01 23:32N 54°32' E 018°33'0 0.0
2016-Dec-01 22:32N 54°32' E 018°33'0 0.0
2016-Dec-01 21:32N 54°32' E 018°33'0 0.0
2016-Dec-01 20:29N 54°32' E 018°33'0 0.0
2016-Dec-01 19:32N 54°32' E 018°33'0 0.0
2016-Dec-01 18:32N 54°32' E 018°33'0 0.0
2016-Dec-01 17:32N 54°32' E 018°33'0 0.0
2016-Dec-01 16:32N 54°32' E 018°33'0 0.0
2016-Dec-01 15:32N 54°32' E 018°33'0 0.0
2016-Dec-01 14:32N 54°32' E 018°33'0 0.0
2016-Dec-01 13:32N 54°32' E 018°33'0 0.0
2016-Dec-01 12:32N 54°32' E 018°33'0 0.0
2016-Dec-01 11:32N 54°32' E 018°33'0 0.0
2016-Dec-01 10:32N 54°32' E 018°33'0 0.0
2016-Dec-01 09:32N 54°32' E 018°33'0 0.0
2016-Dec-01 08:32N 54°32' E 018°33'0 0.0
2016-Dec-01 07:32N 54°32' E 018°33'0 0.0
2016-Dec-01 06:32N 54°32' E 018°33'0 0.0
2016-Dec-01 05:32N 54°32' E 018°33'0 0.0
2016-Dec-01 04:32N 54°32' E 018°33'0 0.0
2016-Dec-01 03:32N 54°32' E 018°33'0 0.0
2016-Dec-01 02:32N 54°32' E 018°33'0 0.0
2016-Dec-01 01:32N 54°32' E 018°33'0 0.0
2016-Dec-01 00:32N 54°32' E 018°33'0 0.0
2016-Nov-30 23:32N 54°32' E 018°33'0 0.0
2016-Nov-30 22:32N 54°32' E 018°33'0 0.0
2016-Nov-30 21:32N 54°32' E 018°33'0 0.0
2016-Nov-30 20:32N 54°32' E 018°33'0 0.0
2016-Nov-30 19:32N 54°32' E 018°33'0 0.0
2016-Nov-30 18:32N 54°32' E 018°33'0 0.0
2016-Nov-30 17:32N 54°32' E 018°33'0 0.0
2016-Nov-30 16:32N 54°32' E 018°33'0 0.0
2016-Nov-30 15:32N 54°32' E 018°33'0 0.0
2016-Nov-30 14:32N 54°32' E 018°33'0 0.0
2016-Nov-30 13:32N 54°32' E 018°33'0 0.0
2016-Nov-30 12:32N 54°32' E 018°33'0 0.0
2016-Nov-30 11:32N 54°32' E 018°33'0 0.0
2016-Nov-30 10:26N 54°32' E 018°33'0 0.0
2016-Nov-30 09:32N 54°32' E 018°33'1 1.4
2016-Nov-30 08:34N 54°32' E 018°36'3 2.9
2016-Nov-30 07:31N 54°31' E 018°41'0 0.0
2016-Nov-30 06:31N 54°31' E 018°41'0 0.0
2016-Nov-30 05:31N 54°31' E 018°41'0 0.0
2016-Nov-30 04:31N 54°31' E 018°41'0 0.0
2016-Nov-30 03:31N 54°31' E 018°41'0 0.0
2016-Nov-30 02:31N 54°31' E 018°41'0 0.0
2016-Nov-30 01:31N 54°31' E 018°41'0 0.0
2016-Nov-30 00:31N 54°31' E 018°41'0 0.0
2016-Nov-29 23:31N 54°31' E 018°41'0 0.0
2016-Nov-29 22:31N 54°31' E 018°41'0 0.0
2016-Nov-29 21:31N 54°31' E 018°41'0 0.0
2016-Nov-29 20:31N 54°31' E 018°41'0 0.0
2016-Nov-29 19:31N 54°31' E 018°41'0 0.0
2016-Nov-29 18:31N 54°31' E 018°41'0 0.0
2016-Nov-29 17:31N 54°31' E 018°41'0 0.0
2016-Nov-29 16:31N 54°31' E 018°41'0 0.0
2016-Nov-29 15:31N 54°31' E 018°41'0 0.1
2016-Nov-29 14:31N 54°31' E 018°41'0 0.0
2016-Nov-29 13:31N 54°31' E 018°41'0 0.0
2016-Nov-29 12:31N 54°31' E 018°41'0 0.0
2016-Nov-29 11:31N 54°31' E 018°41'0 0.0
2016-Nov-29 10:31N 54°31' E 018°41'0 0.0
2016-Nov-29 09:31N 54°31' E 018°41'0 0.0
2016-Nov-29 08:31N 54°31' E 018°41'0 0.0
2016-Nov-29 07:31N 54°31' E 018°41'0 0.0
2016-Nov-29 06:31N 54°31' E 018°41'0 0.0
2016-Nov-29 05:31N 54°31' E 018°41'0 0.0
2016-Nov-29 04:31N 54°31' E 018°41'0 0.0
2016-Nov-29 03:31N 54°31' E 018°41'0 0.0
2016-Nov-29 02:33N 54°31' E 018°41'7 6.8
2016-Nov-29 01:33N 54°34' E 018°51'1212.0
2016-Nov-29 00:33N 54°45' E 018°59'1313.3
2016-Nov-28 23:33N 54°53' E 018°41'1313.5
2016-Nov-28 22:33N 55°00' E 018°21'1313.2
2016-Nov-28 21:33N 55°07' E 018°00'  
2016-Nov-26 03:31N 55°50' E 015°42'8610.2
2016-Nov-25 19:04N 55°09' E 017°55'611.4
2016-Nov-25 18:33N 55°06' E 018°04'1212.0
2016-Nov-25 17:33N 55°01' E 018°22'1211.9
2016-Nov-25 16:33N 54°54' E 018°40'1312.5
2016-Nov-25 15:33N 54°46' E 018°57'1211.7
2016-Nov-25 14:33N 54°35' E 018°53'1212.0
2016-Nov-25 13:33N 54°31' E 018°34'1 0.7
2016-Nov-25 12:31N 54°32' E 018°33'0 0.0
2016-Nov-25 11:31N 54°32' E 018°33'0 0.0
2016-Nov-25 10:31N 54°32' E 018°33'0 0.0
2016-Nov-25 09:31N 54°32' E 018°33'0 0.0
2016-Nov-25 08:31N 54°32' E 018°33'0 0.0
2016-Nov-25 07:31N 54°32' E 018°33'0 0.0
2016-Nov-25 06:31N 54°32' E 018°33'0 0.0
2016-Nov-25 05:31N 54°32' E 018°33'0 0.0
2016-Nov-25 04:31N 54°32' E 018°33'0 0.0
2016-Nov-25 03:31N 54°32' E 018°33'0 0.0
2016-Nov-25 02:31N 54°32' E 018°33'0 0.0
2016-Nov-25 01:31N 54°32' E 018°33'0 0.0
2016-Nov-25 00:31N 54°32' E 018°33'0 0.0
2016-Nov-24 23:31N 54°32' E 018°33'0 0.0
2016-Nov-24 22:31N 54°32' E 018°33'0 0.0
2016-Nov-24 21:31N 54°32' E 018°33'0 0.0
2016-Nov-24 20:31N 54°32' E 018°33'0 0.0
2016-Nov-24 19:31N 54°32' E 018°33'0 0.0
2016-Nov-24 18:31N 54°32' E 018°33'0 0.3
2016-Nov-24 17:33N 54°31' E 018°34'4 4.0
2016-Nov-24 16:31N 54°31' E 018°41'0 0.0
2016-Nov-24 15:31N 54°31' E 018°41'0 0.0
2016-Nov-24 14:31N 54°31' E 018°41'0 0.0
2016-Nov-24 13:31N 54°31' E 018°41'0 0.0
2016-Nov-24 12:31N 54°31' E 018°41'0 0.0
2016-Nov-24 11:31N 54°31' E 018°41'0 0.0
2016-Nov-24 10:31N 54°31' E 018°41'0 0.0
2016-Nov-24 09:31N 54°31' E 018°41'0 0.0
2016-Nov-24 08:33N 54°31' E 018°41'10 9.9
2016-Nov-24 07:34N 54°37' E 018°54'1110.8
2016-Nov-24 06:34N 54°48' E 018°53'1413.6
2016-Nov-24 05:34N 54°56' E 018°34'1313.4
2016-Nov-24 04:33N 55°03' E 018°14'7413.5
2016-Nov-23 23:06N 55°38' E 016°21'1113.4
2016-Nov-23 22:17N 55°43' E 016°04'2713.3
2016-Nov-23 20:15N 55°57' E 015°22'1413.3
2016-Nov-23 19:13N 56°03' E 015°00'811.2
2016-Nov-23 18:32N 56°08' E 014°49'  

Dump ship's entire track history